createdAt,value
2018-11-23T00:00:15.828Z,102372.20
2018-11-23T00:02:45.071Z,102379.19
2018-11-23T00:05:13.320Z,102379.58
2018-11-23T00:07:43.232Z,102376.98
2018-11-23T00:10:13.085Z,102370.97
2018-11-23T00:12:41.267Z,102382.19
2018-11-23T00:15:13.554Z,102377.02
2018-11-23T00:17:41.823Z,102370.45
2018-11-23T00:20:12.377Z,102377.48
2018-11-23T00:22:40.756Z,102373.91
2018-11-23T00:27:45.028Z,102379.16
2018-11-23T00:30:15.337Z,102383.49
2018-11-23T00:32:43.827Z,102389.09
2018-11-23T00:35:14.718Z,102388.27
2018-11-23T00:37:43.065Z,102370.97
2018-11-23T00:40:13.364Z,102391.34
2018-11-23T00:42:42.054Z,102388.70
2018-11-23T00:45:12.015Z,102389.17
2018-11-23T00:47:40.681Z,102385.23
2018-11-23T00:50:11.106Z,102389.17
2018-11-23T00:52:39.816Z,102382.64
2018-11-23T00:55:10.409Z,102374.38
2018-11-23T00:57:39.166Z,102377.03
2018-11-23T01:00:14.377Z,102374.83
2018-11-23T01:02:42.740Z,102372.64
2018-11-23T01:05:12.273Z,102368.69
2018-11-23T01:07:41.094Z,102369.99
2018-11-23T01:10:10.887Z,102373.96
2018-11-23T01:12:39.869Z,102374.40
2018-11-23T01:15:08.744Z,102369.60
2018-11-23T01:17:37.335Z,102365.69
2018-11-23T01:20:08.843Z,102359.15
2018-11-23T01:22:37.258Z,102359.66
2018-11-23T01:25:07.429Z,102350.50
2018-11-23T01:27:35.586Z,102359.24
2018-11-23T01:30:04.056Z,102354.39
2018-11-23T01:32:32.377Z,102361.41
2018-11-23T01:35:00.852Z,102356.60
2018-11-23T01:37:29.030Z,102358.36
2018-11-23T01:39:57.207Z,102360.53
2018-11-23T01:42:25.375Z,102355.75
2018-11-23T01:44:53.811Z,102316.28
2018-11-23T01:47:22.682Z,102341.31
2018-11-23T01:49:51.102Z,102351.41
2018-11-23T01:52:19.376Z,102341.84
2018-11-23T01:54:47.616Z,102344.88
2018-11-23T01:57:16.897Z,102335.75
2018-11-23T01:59:45.082Z,102333.12
2018-11-23T02:02:13.351Z,102340.14
2018-11-23T02:04:41.672Z,102332.34
2018-11-23T02:07:09.831Z,102335.33
2018-11-23T02:09:38.018Z,102333.17
2018-11-23T02:12:06.174Z,102321.83
2018-11-23T02:14:34.454Z,102325.80
2018-11-23T02:17:02.616Z,102322.31
2018-11-23T02:19:30.783Z,102315.34
2018-11-23T02:21:59.772Z,102321.01
2018-11-23T02:24:27.926Z,102312.69
2018-11-23T02:26:56.132Z,102313.55
2018-11-23T02:29:24.474Z,102308.83
2018-11-23T02:31:52.637Z,102311.42
2018-11-23T02:34:20.853Z,102309.70
2018-11-23T02:36:49.325Z,102304.94
2018-11-23T02:39:17.652Z,102295.83
2018-11-23T02:41:45.822Z,102303.64
2018-11-23T02:44:14.799Z,102314.49
2018-11-23T02:46:42.989Z,102307.10
2018-11-23T02:49:11.187Z,102307.08
2018-11-23T02:51:39.557Z,102302.70
2018-11-23T02:54:07.780Z,102306.18
2018-11-23T02:56:44.618Z,102312.34
2018-11-23T02:59:12.971Z,102308.80
2018-11-23T03:01:41.473Z,102313.66
2018-11-23T03:04:10.962Z,102307.98
2018-11-23T03:06:39.116Z,102310.56
2018-11-23T03:09:09.472Z,102304.45
2018-11-23T03:11:40.430Z,102307.11
2018-11-23T03:14:09.602Z,102303.58
2018-11-23T03:16:38.147Z,102306.19
2018-11-23T03:19:06.637Z,102304.02
2018-11-23T03:21:35.726Z,102294.11
2018-11-23T03:24:04.158Z,102293.22
2018-11-23T03:26:32.331Z,102289.69
2018-11-23T03:29:00.523Z,102278.48
2018-11-23T03:31:28.687Z,102281.03
2018-11-23T03:33:57.865Z,102281.84
2018-11-23T03:36:26.038Z,102287.02
2018-11-23T03:38:55.181Z,102289.26
2018-11-23T03:41:23.365Z,102290.15
2018-11-23T03:43:51.558Z,102286.28
2018-11-23T03:46:19.832Z,102291.08
2018-11-23T03:48:48.028Z,102285.85
2018-11-23T03:51:16.225Z,102284.52
2018-11-23T03:53:44.593Z,102282.85
2018-11-23T03:56:12.775Z,102283.23
2018-11-23T03:58:40.938Z,102284.58
2018-11-23T04:01:09.103Z,102281.08
2018-11-23T04:03:37.257Z,102280.63
2018-11-23T04:06:05.674Z,102281.90
2018-11-23T04:08:33.968Z,102289.67
2018-11-23T04:11:02.177Z,102287.09
2018-11-23T04:13:31.115Z,102284.58
2018-11-23T04:15:59.469Z,102282.85
2018-11-23T04:18:28.208Z,102282.88
2018-11-23T04:21:01.512Z,102277.20
2018-11-23T04:23:30.760Z,102280.16
2018-11-23T04:25:59.284Z,102229.98
2018-11-23T04:28:27.518Z,102271.55
2018-11-23T04:30:55.866Z,102282.84
2018-11-23T04:33:24.347Z,102278.48
2018-11-23T04:35:52.501Z,102277.22
2018-11-23T04:38:21.042Z,102276.33
2018-11-23T04:40:49.224Z,102273.31
2018-11-23T04:43:17.413Z,102281.16
2018-11-23T04:45:45.607Z,102271.16
2018-11-23T04:48:13.815Z,102271.53
2018-11-23T04:50:42.080Z,102275.87
2018-11-23T04:53:10.248Z,102274.10
2018-11-23T04:55:38.458Z,102275.05
2018-11-23T04:58:06.652Z,102279.82
2018-11-23T05:00:35.118Z,102270.20
2018-11-23T05:03:03.296Z,102274.18
2018-11-23T05:05:32.600Z,102275.02
2018-11-23T05:08:00.766Z,102277.61
2018-11-23T05:10:28.929Z,102281.93
2018-11-23T05:12:57.572Z,102282.38
2018-11-23T05:15:27.068Z,102279.72
2018-11-23T05:17:55.255Z,102286.25
2018-11-23T05:20:23.783Z,102286.69
2018-11-23T05:22:52.070Z,102279.34
2018-11-23T05:25:20.802Z,102281.06
2018-11-23T05:30:45.808Z,102280.67
2018-11-23T05:33:15.248Z,102275.43
2018-11-23T05:35:43.891Z,102275.45
2018-11-23T05:38:12.058Z,102283.66
2018-11-23T05:40:40.466Z,102275.87
2018-11-23T05:43:08.618Z,102278.50
2018-11-23T05:45:36.805Z,102273.27
2018-11-23T05:48:05.105Z,102273.23
2018-11-23T05:50:33.325Z,102273.73
2018-11-23T05:53:01.723Z,102272.84
2018-11-23T05:55:30.091Z,102274.16
2018-11-23T05:57:58.252Z,102268.03
2018-11-23T06:00:28.791Z,102269.75
2018-11-23T06:02:56.982Z,102267.13
2018-11-23T06:05:25.174Z,102263.20
2018-11-23T06:07:53.344Z,102262.80
2018-11-23T06:10:22.027Z,102261.94
2018-11-23T06:12:50.295Z,102250.22
2018-11-23T06:15:19.812Z,102253.77
2018-11-23T06:17:48.318Z,102252.78
2018-11-23T06:20:18.404Z,102251.52
2018-11-23T06:22:47.556Z,102247.13
2018-11-23T06:25:25.263Z,102256.75
2018-11-23T06:27:53.502Z,102258.95
2018-11-23T06:30:21.698Z,102258.47
2018-11-23T06:33:01.325Z,102258.02
2018-11-23T06:35:29.733Z,102258.48
2018-11-23T06:37:58.294Z,102258.02
2018-11-23T06:40:27.766Z,102257.59
2018-11-23T06:45:54.550Z,102259.34
2018-11-23T06:48:23.100Z,102264.13
2018-11-23T06:50:51.493Z,102254.97
2018-11-23T06:53:19.841Z,102261.95
2018-11-23T06:55:48.665Z,102260.60
2018-11-23T06:58:18.042Z,102255.39
2018-11-23T07:00:46.230Z,102257.62
2018-11-23T07:03:14.405Z,102264.61
2018-11-23T07:05:42.964Z,102260.27
2018-11-23T07:08:19.729Z,102264.14
2018-11-23T07:10:48.067Z,102262.00
2018-11-23T07:13:17.064Z,102268.92
2018-11-23T07:15:45.740Z,102262.42
2018-11-23T07:18:14.013Z,102254.23
2018-11-23T07:20:42.460Z,102264.14
2018-11-23T07:23:10.671Z,102262.02
2018-11-23T07:25:42.535Z,102265.48
2018-11-23T07:28:35.629Z,102267.19
2018-11-23T07:31:11.210Z,102271.98
2018-11-23T07:34:09.801Z,102268.92
2018-11-23T07:36:45.477Z,102268.52
2018-11-23T07:39:24.937Z,102267.63
2018-11-23T07:42:06.250Z,102265.88
2018-11-23T07:46:42.665Z,102274.98
2018-11-23T07:49:11.079Z,102267.64
2018-11-23T07:51:39.434Z,102263.69
2018-11-23T07:54:07.609Z,102274.11
2018-11-23T07:56:36.134Z,102268.50
2018-11-23T07:59:04.332Z,102268.52
2018-11-23T08:01:32.496Z,102271.58
2018-11-23T08:04:00.673Z,102272.81
2018-11-23T08:06:28.820Z,102271.03
2018-11-23T08:08:57.127Z,102264.97
2018-11-23T08:11:25.331Z,102269.75
2018-11-23T08:13:53.600Z,102264.98
2018-11-23T08:16:21.801Z,102265.42
2018-11-23T08:18:50.669Z,102264.56
2018-11-23T08:21:18.829Z,102258.45
2018-11-23T08:23:47.150Z,102261.91
2018-11-23T08:26:15.453Z,102267.16
2018-11-23T08:28:43.657Z,102264.07
2018-11-23T08:31:11.856Z,102263.70
2018-11-23T08:33:40.123Z,102259.81
2018-11-23T08:36:08.367Z,102257.61
2018-11-23T08:38:36.548Z,102258.89
2018-11-23T08:41:05.536Z,102261.91
2018-11-23T08:43:32.900Z,102261.44
2018-11-23T08:46:01.273Z,102260.15
2018-11-23T08:48:30.262Z,102263.66
2018-11-23T08:50:58.458Z,102260.23
2018-11-23T08:53:33.697Z,102258.93
2018-11-23T08:56:01.863Z,102261.09
2018-11-23T08:58:30.301Z,102254.13
2018-11-23T09:00:58.551Z,102233.78
2018-11-23T09:03:27.439Z,102254.16
2018-11-23T09:05:55.715Z,102254.55
2018-11-23T09:08:24.002Z,102251.48
2018-11-23T09:10:52.188Z,102248.02
2018-11-23T09:13:20.418Z,102249.31
2018-11-23T09:15:48.726Z,102248.95
2018-11-23T09:18:16.906Z,102244.09
2018-11-23T09:20:45.076Z,102241.10
2018-11-23T09:23:13.300Z,102243.66
2018-11-23T09:25:41.464Z,102234.88
2018-11-23T09:28:10.017Z,102238.50
2018-11-23T09:30:38.244Z,102234.95
2018-11-23T09:33:06.906Z,102227.98
2018-11-23T09:35:35.172Z,102231.55
2018-11-23T09:38:04.493Z,102233.27
2018-11-23T09:40:32.664Z,102230.66
2018-11-23T09:43:00.885Z,102221.95
2018-11-23T09:45:31.601Z,102228.95
2018-11-23T09:48:01.224Z,102224.97
2018-11-23T09:50:30.455Z,102226.72
2018-11-23T09:52:59.854Z,102229.27
2018-11-23T09:55:29.092Z,102221.92
2018-11-23T09:57:57.277Z,102218.88
2018-11-23T10:00:26.877Z,102213.22
2018-11-23T10:02:56.608Z,102214.13
2018-11-23T10:05:25.474Z,102213.22
2018-11-23T10:07:55.242Z,102205.84
2018-11-23T10:10:24.088Z,102206.73
2018-11-23T10:12:52.279Z,102198.05
2018-11-23T10:15:21.159Z,102204.12
2018-11-23T10:17:49.318Z,102201.79
2018-11-23T10:20:18.809Z,102200.52
2018-11-23T10:22:47.296Z,102195.73
2018-11-23T10:25:17.128Z,102201.03
2018-11-23T10:27:45.595Z,102199.27
2018-11-23T10:30:16.160Z,102200.94
2018-11-23T10:32:45.260Z,102195.38
2018-11-23T10:35:13.439Z,102193.19
2018-11-23T10:37:42.365Z,102184.05
2018-11-23T10:40:12.993Z,102184.94
2018-11-23T10:42:41.507Z,102186.60
2018-11-23T10:45:20.277Z,102181.00
2018-11-23T10:47:48.991Z,102181.03
2018-11-23T10:50:19.778Z,102179.71
2018-11-23T10:52:48.099Z,102175.75
2018-11-23T10:55:18.451Z,102171.41
2018-11-23T10:57:46.676Z,102170.00
2018-11-23T11:00:23.586Z,102166.13
2018-11-23T11:02:58.218Z,102160.42
2018-11-23T11:06:04.475Z,102158.30
2018-11-23T11:08:32.667Z,102160.97
2018-11-23T11:11:00.863Z,102151.31
2018-11-23T11:13:29.034Z,102149.48
2018-11-23T11:15:57.595Z,102152.11
2018-11-23T11:18:25.784Z,102126.52
2018-11-23T11:20:53.946Z,102138.38
2018-11-23T11:23:22.222Z,102143.62
2018-11-23T11:25:50.539Z,102150.06
2018-11-23T11:28:18.720Z,102145.27
2018-11-23T11:30:46.904Z,102137.45
2018-11-23T11:33:15.200Z,102125.30
2018-11-23T11:35:43.417Z,102126.43
2018-11-23T11:38:11.619Z,102122.13
2018-11-23T11:40:39.942Z,102112.97
2018-11-23T11:43:08.160Z,102114.73
2018-11-23T11:45:36.333Z,102114.28
2018-11-23T11:48:04.604Z,102113.09
2018-11-23T11:50:32.815Z,102108.22
2018-11-23T11:53:01.020Z,102102.95
2018-11-23T11:55:29.201Z,102106.31
2018-11-23T11:57:57.391Z,102103.06
2018-11-23T12:00:26.466Z,102099.38
2018-11-23T12:02:55.050Z,102025.33
2018-11-23T12:05:23.284Z,102091.55
2018-11-23T12:07:51.507Z,102094.20
2018-11-23T12:10:22.596Z,102090.95
2018-11-23T12:12:51.126Z,102091.96
2018-11-23T12:15:19.318Z,102095.05
2018-11-23T12:17:47.496Z,102091.64
2018-11-23T12:20:19.102Z,102088.86
2018-11-23T12:22:47.767Z,102089.03
2018-11-23T12:25:16.054Z,102085.44
2018-11-23T12:27:44.221Z,102084.23
2018-11-23T12:30:15.458Z,102079.80
2018-11-23T12:32:44.739Z,102068.13
2018-11-23T12:35:13.890Z,102068.39
2018-11-23T12:37:42.207Z,102064.22
2018-11-23T12:40:12.096Z,102060.76
2018-11-23T12:42:40.440Z,102066.66
2018-11-23T12:45:10.822Z,102056.58
2018-11-23T12:47:39.161Z,102061.29
2018-11-23T12:50:09.655Z,102047.45
2018-11-23T12:52:37.853Z,102057.44
2018-11-23T12:55:18.280Z,102057.42
2018-11-23T12:57:47.767Z,102050.15
2018-11-23T13:00:24.048Z,102056.32
2018-11-23T13:02:54.349Z,102063.16
2018-11-23T13:05:23.676Z,102050.91
2018-11-23T13:07:52.785Z,102058.53
2018-11-23T13:10:23.698Z,102053.55
2018-11-23T13:12:52.603Z,102054.39
2018-11-23T13:16:24.241Z,102051.69
2018-11-23T13:18:53.427Z,102046.54
2018-11-23T13:21:22.581Z,102043.84
2018-11-23T13:23:51.135Z,102044.62
2018-11-23T13:26:19.543Z,102046.58
2018-11-23T13:28:54.843Z,102045.36
2018-11-23T13:31:23.932Z,102034.81
2018-11-23T13:33:53.907Z,102040.41
2018-11-23T13:36:22.235Z,102033.42
2018-11-23T13:38:50.442Z,102031.72
2018-11-23T13:41:19.671Z,102033.29
2018-11-23T13:43:47.965Z,102031.68
2018-11-23T13:46:17.395Z,102035.88
2018-11-23T13:48:45.664Z,102030.68
2018-11-23T13:51:15.255Z,102033.41
2018-11-23T13:53:43.736Z,102026.44
2018-11-23T13:56:12.105Z,102033.13
2018-11-23T13:58:40.713Z,102020.83
2018-11-23T14:01:08.965Z,102025.85
2018-11-23T14:03:37.459Z,102022.41
2018-11-23T14:06:06.345Z,102021.84
2018-11-23T14:08:34.948Z,101950.22
2018-11-23T14:11:14.179Z,102016.86
2018-11-23T14:13:43.078Z,102025.02
2018-11-23T14:16:11.263Z,102028.89
2018-11-23T14:18:39.543Z,102026.64
2018-11-23T14:21:07.808Z,102024.52
2018-11-23T14:23:36.000Z,102012.09
2018-11-23T14:26:05.140Z,102015.93
2018-11-23T14:28:34.382Z,102022.59
2018-11-23T14:31:02.596Z,102010.84
2018-11-23T14:33:30.998Z,102014.98
2018-11-23T14:35:59.386Z,102008.91
2018-11-23T14:38:27.630Z,102006.70
2018-11-23T14:40:56.068Z,102004.01
2018-11-23T14:43:24.354Z,102003.52
2018-11-23T14:45:52.772Z,102001.91
2018-11-23T14:48:22.142Z,102007.04
2018-11-23T14:50:51.904Z,102002.78
2018-11-23T14:53:39.434Z,102004.53
2018-11-23T14:56:16.400Z,102001.47
2018-11-23T14:58:44.769Z,101999.36
2018-11-23T15:01:13.102Z,101999.41
2018-11-23T15:03:45.210Z,101998.94
2018-11-23T15:06:14.165Z,102001.15
2018-11-23T15:08:42.664Z,102003.83
2018-11-23T15:11:10.858Z,102005.48
2018-11-23T15:13:39.067Z,102005.58
2018-11-23T15:16:07.474Z,102001.98
2018-11-23T15:18:35.868Z,101997.65
2018-11-23T15:21:04.112Z,101995.80
2018-11-23T15:23:32.332Z,101993.69
2018-11-23T15:26:00.525Z,101995.31
2018-11-23T15:28:28.763Z,101987.05
2018-11-23T15:30:56.953Z,101986.72
2018-11-23T15:33:25.236Z,101990.13
2018-11-23T15:35:53.406Z,101985.02
2018-11-23T15:38:23.215Z,101983.17
2018-11-23T15:40:51.366Z,101977.11
2018-11-23T15:43:20.414Z,101974.62
2018-11-23T15:47:13.194Z,101978.30
2018-11-23T15:49:41.985Z,101978.89
2018-11-23T15:52:10.212Z,101981.94
2018-11-23T15:54:40.559Z,101979.75
2018-11-23T15:57:09.517Z,101979.83
2018-11-23T15:59:38.829Z,101985.98
2018-11-23T16:02:25.981Z,101981.12
2018-11-23T16:04:54.880Z,101984.52
2018-11-23T16:07:23.224Z,101991.47
2018-11-23T16:09:51.399Z,101989.80
2018-11-23T16:12:19.587Z,101987.54
2018-11-23T16:14:47.777Z,101993.13
2018-11-23T16:17:16.154Z,101981.47
2018-11-23T16:19:44.501Z,101984.91
2018-11-23T16:22:12.873Z,101985.91
2018-11-23T16:24:44.791Z,101983.84
2018-11-23T16:27:13.185Z,101984.66
2018-11-23T16:29:41.433Z,101980.95
2018-11-23T16:32:09.795Z,101973.72
2018-11-23T16:34:38.288Z,101972.19
2018-11-23T16:37:07.606Z,101971.11
2018-11-23T16:39:36.014Z,101972.31
2018-11-23T16:42:04.768Z,101972.70
2018-11-23T16:44:33.303Z,101971.60
2018-11-23T16:47:01.623Z,101969.06
2018-11-23T16:49:30.020Z,101967.36
2018-11-23T16:51:58.296Z,101926.83
2018-11-23T16:54:26.514Z,101959.78
2018-11-23T16:56:55.015Z,101961.97
2018-11-23T16:59:26.409Z,101966.87
2018-11-23T17:01:54.767Z,101955.67
2018-11-23T17:04:38.094Z,101962.70
2018-11-23T17:07:12.651Z,101958.72
2018-11-23T17:09:45.035Z,101962.12
2018-11-23T17:12:13.613Z,101966.06
2018-11-23T17:14:42.884Z,101960.34
2018-11-23T17:17:11.897Z,101957.19
2018-11-23T17:19:40.515Z,101956.98
2018-11-23T17:22:08.876Z,101961.41
2018-11-23T17:24:38.696Z,101959.19
2018-11-23T17:27:08.267Z,101956.22
2018-11-23T17:29:36.734Z,101955.59
2018-11-23T17:32:05.187Z,101953.69
2018-11-23T17:34:36.409Z,101952.24
2018-11-23T17:37:07.568Z,101948.77
2018-11-23T17:39:36.248Z,101949.22
2018-11-23T17:42:04.854Z,101952.63
2018-11-23T17:44:34.604Z,101948.35
2018-11-23T17:47:02.984Z,101950.03
2018-11-23T17:49:31.640Z,101949.67
2018-11-23T17:52:00.449Z,101953.58
2018-11-23T17:54:29.116Z,101942.08
2018-11-23T17:56:57.460Z,101940.33
2018-11-23T17:59:25.709Z,101942.45
2018-11-23T18:04:52.083Z,101936.41
2018-11-23T18:07:20.389Z,101933.70
2018-11-23T18:09:51.150Z,101936.77
2018-11-23T18:12:23.618Z,101937.08
2018-11-23T18:14:52.227Z,101938.95
2018-11-23T18:17:20.753Z,101935.89
2018-11-23T18:19:49.094Z,101934.17
2018-11-23T18:22:17.497Z,101934.24
2018-11-23T18:24:45.881Z,101939.56
2018-11-23T18:27:21.274Z,101935.53
2018-11-23T18:29:52.057Z,101930.38
2018-11-23T18:56:32.898Z,101918.36
2018-11-23T18:59:01.222Z,101921.25
2018-11-23T19:01:30.109Z,101920.88
2018-11-23T19:03:58.594Z,101915.83
2018-11-23T19:06:27.257Z,101913.97
2018-11-23T19:08:56.605Z,101913.49
2018-11-23T19:11:25.145Z,101908.35
2018-11-23T19:13:53.735Z,101906.19
2018-11-23T19:16:24.812Z,101841.39
2018-11-23T19:18:56.578Z,101904.89
2018-11-23T19:21:25.213Z,101898.25
2018-11-23T19:23:53.958Z,101897.89
2018-11-23T19:26:24.274Z,101893.89
2018-11-23T19:29:26.116Z,101897.06
2018-11-23T19:31:58.572Z,101890.92
2018-11-23T19:34:29.005Z,101882.67
2018-11-23T19:36:57.401Z,101884.72
2018-11-23T19:45:43.568Z,101866.80
2018-11-23T19:48:36.441Z,101862.50
2018-11-23T19:51:18.384Z,101867.39
2018-11-23T19:53:46.800Z,101858.70
2018-11-23T19:56:15.029Z,101851.02
2018-11-23T19:58:43.250Z,101839.83
2018-11-23T20:01:12.720Z,101836.30
2018-11-23T20:03:40.926Z,101830.13
2018-11-23T20:06:09.149Z,101831.02
2018-11-23T20:08:37.414Z,101825.73
2018-11-23T20:11:05.627Z,101826.66
2018-11-23T20:13:33.967Z,101821.05
2018-11-23T20:16:02.256Z,101816.96
2018-11-23T20:18:30.465Z,101816.01
2018-11-23T20:20:58.657Z,101816.42
2018-11-23T20:23:26.856Z,101812.56
2018-11-23T20:25:55.096Z,101808.47
2018-11-23T20:28:23.486Z,101813.78
2018-11-23T20:30:58.427Z,101809.48
2018-11-23T20:33:26.805Z,101807.99
2018-11-23T20:35:55.222Z,101811.84
2018-11-23T20:38:23.465Z,101811.88
2018-11-23T20:40:51.759Z,101802.55
2018-11-23T20:43:22.091Z,101808.88
2018-11-23T20:45:50.447Z,101798.85
2018-11-23T20:48:18.830Z,101740.83
2018-11-23T20:50:47.352Z,101797.99
2018-11-23T20:53:15.851Z,101792.70
2018-11-23T20:55:44.192Z,101795.70
2018-11-23T20:58:12.402Z,101797.16
2018-11-23T21:00:40.628Z,101791.91
2018-11-23T21:03:08.947Z,101794.42
2018-11-23T21:05:37.239Z,101792.26
2018-11-23T21:08:05.541Z,101786.21
2018-11-23T21:10:41.696Z,101790.16
2018-11-23T21:14:18.860Z,101786.40
2018-11-23T21:16:47.431Z,101789.87
2018-11-23T21:19:15.688Z,101795.38
2018-11-23T21:21:43.884Z,101794.55
2018-11-23T21:24:12.215Z,101790.54
2018-11-23T21:26:40.639Z,101788.02
2018-11-23T21:29:09.631Z,101788.75
2018-11-23T21:31:37.979Z,101788.25
2018-11-23T21:36:47.220Z,101779.74
2018-11-23T21:39:20.183Z,101784.81
2018-11-23T21:41:49.430Z,101776.81
2018-11-23T21:44:18.220Z,101771.91
2018-11-23T21:46:47.281Z,101777.07
2018-11-23T21:49:15.806Z,101770.48
2018-11-23T21:51:44.603Z,101774.36
2018-11-23T21:54:15.653Z,101770.03
2018-11-23T21:56:44.924Z,101766.49
2018-11-23T21:59:13.557Z,101765.05
2018-11-23T22:01:41.824Z,101763.33
2018-11-23T22:04:10.344Z,101765.63
2018-11-23T22:06:43.466Z,101767.25
2018-11-23T22:09:12.158Z,101760.72
2018-11-23T22:11:40.884Z,101762.92
2018-11-23T22:14:09.169Z,101765.44
2018-11-23T22:16:45.060Z,101766.84
2018-11-23T22:22:10.932Z,101763.78
2018-11-23T22:24:41.385Z,101762.78
2018-11-23T22:27:13.828Z,101756.67
2018-11-23T22:30:26.934Z,101755.84
2018-11-23T22:36:10.492Z,101745.50
2018-11-23T22:38:45.738Z,101676.20
2018-11-23T22:41:28.089Z,101742.92
2018-11-23T22:43:58.404Z,101735.02
2018-11-23T22:46:37.662Z,101742.89
2018-11-23T22:49:06.790Z,101738.08
2018-11-23T22:51:45.658Z,101741.17
2018-11-23T22:54:18.320Z,101732.48
2018-11-23T22:56:46.642Z,101731.99
2018-11-23T22:59:14.986Z,101728.90
2018-11-23T23:01:43.175Z,101724.42
2018-11-23T23:04:11.387Z,101734.02
2018-11-23T23:06:42.566Z,101728.22
2018-11-23T23:09:10.868Z,101727.56
2018-11-23T23:11:39.064Z,101727.25
2018-11-23T23:14:07.234Z,101722.30
2018-11-23T23:16:35.552Z,101717.63
2018-11-23T23:19:03.743Z,101723.50
2018-11-23T23:21:31.931Z,101716.25
2018-11-23T23:24:00.123Z,101719.55
2018-11-23T23:26:28.402Z,101721.58
2018-11-23T23:28:56.572Z,101725.46
2018-11-23T23:31:24.901Z,101727.39
2018-11-23T23:33:53.074Z,101725.05
2018-11-23T23:36:21.285Z,101724.70
2018-11-23T23:38:49.475Z,101722.44
2018-11-23T23:41:17.716Z,101716.94
2018-11-23T23:43:45.953Z,101709.11
2018-11-23T23:46:14.209Z,101704.78
2018-11-23T23:48:42.430Z,101695.71
2018-11-23T23:51:10.728Z,101694.48
2018-11-23T23:53:39.066Z,101691.17
2018-11-23T23:56:07.248Z,101690.48
2018-11-23T23:58:51.873Z,101618.18
